Historyczne dane pomiarowe

Dodano dane terminowe – wersja testowa.

Dane z okresu 1951-2019

Wersja bazy: 1.34 [2019-03-16, lista zmian], aktualizacja planowana na 2019-04-15

Dane meteo z obszaru Polski uzyskane na podstawie danych udostępnionych przez Instytut Meteorologii i Gospodarki Wodnej – Państwowy Instytut Badawczy.

 

Wybierz Datę:    

       

TemperaturaWilgotnośćWiatrCiśnienieOpadyŚniegCzas trwania zjawisk
 Stacja t tx tn tng RH VA  wxwx mslp ppp RRR   cm mm wxwxwxwxwxwxwx
1983-08-14 12.0 15.5 10.0- 80.3- 6.7 1.3---- 0.0------------
1983-08-13 12.7 19.0 10.5- 87.3- 7.7 0.0---- 5.2------------
1983-08-12 17.2 21.5 14.0- 89.0- 4.0 0.0---- 4.8------------
1983-08-11 16.4 19.5 12.3- 89.5- 8.0 0.7---- 5.6------------
1983-08-10 15.7 21.5 11.0- 86.5- 5.3 1.0---- 1.7------------
1983-08-09 16.4 22.5 12.0- 83.8- 6.7 0.7---- 0.2------------
1983-08-08 17.0 21.0 12.9- 85.8- 7.3 0.7---- 0.0------------
1983-08-07 15.2 20.0 12.5- 90.0- 8.0 0.7---- 1.7------------
1983-08-06 13.8 18.4 10.1- 78.5- 4.7 0.0---- 0.0------------
1983-08-05 10.7 12.6 8.9- 91.0- 7.7 0.3---- 0.7------------
1983-08-04 12.3 20.0 10.5- 91.8- 8.0 0.0---- 12.3------------
1983-08-03 19.9 23.5 13.9- 79.3- 5.0 1.3---- 2.4------------
1983-08-02 19.5 28.5 9.0- 69.5- 5.0 1.0---- 0.0------------
1983-08-01 14.9 25.5 4.5- 76.3- 0.0 1.0---- 0.0------------
1983-07-31 14.0 20.0 8.2- 81.8- 2.7 0.3---- 0.0------------
1983-07-30 15.0 19.0 9.0- 84.5- 8.0 1.0---- 2.6------------
1983-07-29 16.2 22.5 9.0- 75.8- 0.0 1.3---- 0.5------------
1983-07-28 19.1 25.5 13.0- 79.0- 2.7 1.0---- 0.0------------
1983-07-27 19.3 26.6 12.0- 77.0- 0.0 0.0---- 0.0------------
1983-07-26 18.1 23.0 13.3- 72.8- 7.0 2.7---- 0.0------------
1983-07-25 14.0 18.2 10.7- 80.3- 7.3 1.3---- 0.0------------
1983-07-24 14.0 17.0 12.0- 93.5- 8.0 0.3---- 1.6------------
1983-07-23 14.0 18.5 11.0- 80.8- 7.7 0.7---- 2.9------------
1983-07-22 10.0 14.1 3.7- 80.3- 8.0 0.7---- 10.6------------
1983-07-21 10.6 15.1 7.2- 76.0- 6.7 1.7---- 3.6------------
1983-07-20 17.1 23.5 12.5- 80.3- 8.0 1.7---- 9.6------------
1983-07-19 19.7 27.2 9.5- 75.3- 0.0 0.7---- 0.0------------
1983-07-18 18.4 26.6 11.0- 73.5- 1.3 0.3---- 0.0------------
1983-07-17 17.1 25.0 11.0- 76.0- 1.0 1.0---- 0.0------------
1983-07-16 16.7 25.0 7.1- 78.3- 4.0 0.3---- 0.0------------
1983-07-15 17.7 22.0 14.5- 72.8- 3.3 2.0---- 0.0------------
1983-07-14 15.8 17.5 13.7- 94.3- 8.0 0.3---- 14.4------------
1983-07-13 15.2 18.5 12.0- 92.0- 8.0 0.7---- 9.2------------
1983-07-12 15.1 19.5 10.9- 89.5- 7.7 0.0---- 16.5------------
1983-07-11 15.9 20.4 11.3- 90.3- 6.7 1.0---- 7.4------------
1983-07-10 17.5 24.5 9.1- 75.5- 5.3 1.0---- 2.8------------
1983-07-09 17.0 24.2 6.6- 73.8- 1.3 0.3---- 0.0------------
1983-07-08 16.4 23.4 7.1- 69.0- 0.0 1.3---- 0.0------------
1983-07-07 17.8 25.0 7.6- 71.8- 0.0 0.0---- 0.0------------
1983-07-06 17.9 25.0 8.5- 74.8- 0.0 1.0---- 0.0------------
1983-07-05 17.3 24.5 6.2- 73.5- 1.3 1.0---- 0.0------------
1983-07-04 16.3 23.0 6.6- 74.3- 0.7 0.7---- 0.0------------
1983-07-03 17.2 21.2 14.0- 78.0- 4.7 1.0---- 0.0------------
1983-07-02 16.6 21.6 10.0- 84.5- 5.3 0.7---- 0.2------------
1983-07-01 17.0 24.5 8.5- 74.5- 2.0 0.7---- 0.0------------
1983-06-30 14.5 21.5 3.3- 72.3- 3.0 1.3---- 0.0------------
1983-06-29 13.5 17.0 11.0- 73.8- 5.3 1.0---- 0.0------------
1983-06-28 15.7 21.4 13.5- 91.8- 8.0 0.0---- 11.8------------
1983-06-27 18.5 24.5 9.9- 74.5- 3.0 1.3---- 4.8------------
1983-06-26 17.0 21.0 10.0- 77.8- 8.0 0.0---- 6.5------------
1983-06-25 18.0 23.5 10.1- 57.3- 1.3 3.7---- 0.0------------
1983-06-24 14.4 22.6 2.7- 66.8- 0.0 0.3---- 0.0------------
1983-06-23 12.9 19.4 2.2- 59.8- 0.0 1.7---- 0.0------------
1983-06-22 13.8 16.8 10.5- 60.3- 0.7 2.0---- 0.0------------
1983-06-21 16.8 22.8 12.0- 81.8- 5.3 1.3---- 0.0------------
1983-06-20 15.9 19.0 12.5- 89.5- 7.0 0.3---- 0.0------------
1983-06-19 15.0 19.8 10.5- 92.3- 8.0 0.0---- 8.9------------
1983-06-18 10.7 12.6 9.5- 95.0- 8.0 3.0---- 27.0------------
1983-06-17 10.2 11.6 8.5- 88.5- 8.0 2.3---- 4.7------------
1983-06-16 11.1 15.1 9.3- 94.3- 8.0 1.0---- 16.3------------
402.9 ms

 

Źródłem pochodzenia danych jest Instytut Meteorologii i Gospodarki Wodnej – Państwowy Instytut Badawczy. Dane Instytutu Meteorologii i Gospodarki Wodnej – Państwowego Instytutu Badawczego zostały przetworzone.

Dane źródłowe można odnaleźć na stronie https://dane.imgw.pl